createdAt,value
2022-10-23T00:01:45.581Z,100.00
2022-10-23T00:04:15.964Z,100.00
2022-10-23T00:06:45.247Z,100.00
2022-10-23T00:09:17.894Z,100.00
2022-10-23T00:11:47.916Z,100.00
2022-10-23T00:14:18.026Z,100.00
2022-10-23T00:16:46.789Z,100.00
2022-10-23T00:19:15.113Z,100.00
2022-10-23T00:21:43.763Z,100.00
2022-10-23T00:24:12.138Z,100.00
2022-10-23T00:26:42.208Z,100.00
2022-10-23T00:29:11.766Z,100.00
2022-10-23T00:31:40.209Z,100.00
2022-10-23T00:34:09.195Z,100.00
2022-10-23T00:36:38.618Z,100.00
2022-10-23T00:39:07.446Z,100.00
2022-10-23T00:41:36.036Z,100.00
2022-10-23T00:44:09.833Z,100.00
2022-10-23T00:46:40.065Z,100.00
2022-10-23T00:51:45.822Z,100.00
2022-10-23T00:54:24.819Z,100.00
2022-10-23T00:56:57.464Z,100.00
2022-10-23T00:59:28.059Z,100.00
2022-10-23T01:01:56.499Z,100.00
2022-10-23T01:04:26.047Z,100.00
2022-10-23T01:07:00.586Z,100.00
2022-10-23T01:09:37.386Z,100.00
2022-10-23T01:12:11.402Z,100.00
2022-10-23T01:14:48.733Z,100.00
2022-10-23T01:17:24.679Z,100.00
2022-10-23T01:20:11.246Z,100.00
2022-10-23T01:22:55.252Z,100.00
2022-10-23T01:25:39.958Z,100.00
2022-10-23T01:28:15.737Z,100.00
2022-10-23T01:30:45.738Z,100.00
2022-10-23T01:33:21.805Z,100.00
2022-10-23T01:35:57.400Z,100.00
2022-10-23T01:38:30.095Z,100.00
2022-10-23T01:41:04.517Z,100.00
2022-10-23T01:43:42.034Z,100.00
2022-10-23T01:46:14.785Z,100.00
2022-10-23T01:48:48.793Z,100.00
2022-10-23T01:51:18.449Z,100.00
2022-10-23T01:53:50.501Z,100.00
2022-10-23T01:56:22.843Z,100.00
2022-10-23T01:58:56.522Z,100.00
2022-10-23T02:01:31.039Z,100.00
2022-10-23T02:04:01.731Z,100.00
2022-10-23T02:06:30.477Z,100.00
2022-10-23T02:08:59.091Z,100.00
2022-10-23T02:11:28.725Z,100.00
2022-10-23T02:14:02.985Z,100.00
2022-10-23T02:16:38.801Z,100.00
2022-10-23T02:19:17.893Z,100.00
2022-10-23T02:21:56.530Z,100.00
2022-10-23T02:24:32.881Z,100.00
2022-10-23T02:27:05.413Z,100.00
2022-10-23T02:29:38.853Z,100.00
2022-10-23T02:32:09.758Z,100.00
2022-10-23T02:34:38.518Z,100.00
2022-10-23T02:37:07.238Z,100.00
2022-10-23T02:39:35.758Z,100.00
2022-10-23T02:42:11.168Z,100.00
2022-10-23T02:44:53.879Z,100.00
2022-10-23T02:47:34.459Z,100.00
2022-10-23T02:50:09.186Z,100.00
2022-10-23T02:52:47.680Z,100.00
2022-10-23T02:55:24.892Z,100.00
2022-10-23T02:57:57.845Z,100.00
2022-10-23T03:00:34.872Z,100.00
2022-10-23T03:03:12.175Z,100.00
2022-10-23T03:05:44.753Z,100.00
2022-10-23T03:08:16.083Z,100.00
2022-10-23T03:10:44.688Z,100.00
2022-10-23T03:13:13.166Z,100.00
2022-10-23T03:15:46.588Z,100.00
2022-10-23T03:18:16.308Z,100.00
2022-10-23T03:20:50.973Z,100.00
2022-10-23T03:23:23.157Z,100.00
2022-10-23T03:25:51.553Z,100.00
2022-10-23T03:28:35.297Z,100.00
2022-10-23T03:31:05.548Z,100.00
2022-10-23T03:33:33.927Z,100.00
2022-10-23T03:36:13.741Z,100.00
2022-10-23T03:38:42.187Z,100.00
2022-10-23T03:41:12.353Z,100.00
2022-10-23T03:43:40.922Z,100.00
2022-10-23T03:46:12.836Z,100.00
2022-10-23T03:48:42.033Z,100.00
2022-10-23T03:51:10.489Z,100.00
2022-10-23T03:53:43.800Z,100.00
2022-10-23T03:56:12.269Z,100.00
2022-10-23T03:58:41.672Z,100.00
2022-10-23T04:01:12.076Z,100.00
2022-10-23T04:03:40.382Z,100.00
2022-10-23T04:06:09.105Z,100.00
2022-10-23T04:08:37.706Z,100.00
2022-10-23T04:11:12.408Z,100.00
2022-10-23T04:13:47.202Z,100.00
2022-10-23T04:16:17.461Z,100.00
2022-10-23T04:18:46.689Z,100.00
2022-10-23T04:21:15.083Z,100.00
2022-10-23T04:23:43.705Z,100.00
2022-10-23T04:26:14.676Z,100.00
2022-10-23T04:28:43.157Z,100.00
2022-10-23T04:31:11.893Z,100.00
2022-10-23T04:33:44.157Z,100.00
2022-10-23T04:36:23.937Z,100.00
2022-10-23T04:38:53.229Z,100.00
2022-10-23T04:41:23.830Z,100.00
2022-10-23T04:43:52.317Z,100.00
2022-10-23T04:46:20.733Z,100.00
2022-10-23T04:48:51.765Z,100.00
2022-10-23T04:51:40.163Z,100.00
2022-10-23T04:54:15.905Z,100.00
2022-10-23T04:56:55.483Z,100.00
2022-10-23T04:59:23.868Z,100.00
2022-10-23T05:01:52.316Z,100.00
2022-10-23T05:04:22.231Z,100.00
2022-10-23T05:07:13.731Z,100.00
2022-10-23T05:10:00.556Z,100.00
2022-10-23T05:12:40.351Z,100.00
2022-10-23T05:15:09.772Z,100.00
2022-10-23T05:17:41.613Z,100.00
2022-10-23T05:20:18.196Z,100.00
2022-10-23T05:22:48.770Z,100.00
2022-10-23T05:25:17.312Z,100.00
2022-10-23T05:27:51.532Z,100.00
2022-10-23T05:30:19.846Z,100.00
2022-10-23T05:32:49.398Z,100.00
2022-10-23T05:35:26.543Z,100.00
2022-10-23T05:37:57.929Z,100.00
2022-10-23T05:40:27.937Z,100.00
2022-10-23T05:43:01.743Z,100.00
2022-10-23T05:45:48.554Z,100.00
2022-10-23T05:48:34.293Z,99.56
2022-10-23T05:51:25.094Z,99.95
2022-10-23T05:54:12.021Z,98.73
2022-10-23T05:56:50.094Z,99.12
2022-10-23T05:59:23.834Z,97.86
2022-10-23T06:02:02.413Z,97.47
2022-10-23T06:04:45.937Z,97.85
2022-10-23T06:07:38.982Z,98.13
2022-10-23T06:10:09.756Z,98.02
2022-10-23T06:12:42.297Z,97.88
2022-10-23T06:15:14.781Z,98.41
2022-10-23T06:18:04.322Z,98.32
2022-10-23T06:20:37.166Z,98.88
2022-10-23T06:23:18.932Z,98.57
2022-10-23T06:26:20.474Z,100.00
2022-10-23T06:29:04.602Z,99.84
2022-10-23T06:31:32.932Z,100.00
2022-10-23T06:34:01.446Z,100.00
2022-10-23T06:36:31.557Z,100.00
2022-10-23T06:39:11.866Z,99.80
2022-10-23T06:42:12.756Z,99.92
2022-10-23T06:44:53.290Z,100.00
2022-10-23T06:47:40.190Z,100.00
2022-10-23T06:50:27.802Z,100.00
2022-10-23T06:52:57.628Z,100.00
2022-10-23T06:55:27.373Z,100.00
2022-10-23T07:01:19.968Z,100.00
2022-10-23T07:03:49.554Z,100.00
2022-10-23T07:06:22.417Z,100.00
2022-10-23T07:08:51.242Z,100.00
2022-10-23T07:11:40.949Z,100.00
2022-10-23T07:14:09.358Z,97.66
2022-10-23T07:16:37.975Z,95.47
2022-10-23T07:19:06.895Z,95.02
2022-10-23T07:22:07.494Z,93.78
2022-10-23T07:24:44.554Z,92.53
2022-10-23T07:27:21.820Z,92.28
2022-10-23T07:29:56.601Z,91.10
2022-10-23T07:32:28.080Z,90.52
2022-10-23T07:38:00.004Z,88.83
2022-10-23T07:40:32.029Z,87.75
2022-10-23T07:43:02.240Z,87.32
2022-10-23T07:45:30.722Z,87.07
2022-10-23T07:48:01.639Z,86.04
2022-10-23T07:50:40.991Z,85.87
2022-10-23T07:53:15.835Z,84.78
2022-10-23T07:55:45.322Z,84.83
2022-10-23T07:58:17.512Z,83.83
2022-10-23T08:00:55.554Z,83.67
2022-10-23T08:03:32.469Z,82.21
2022-10-23T08:06:03.016Z,81.40
2022-10-23T08:08:32.022Z,79.36
2022-10-23T08:11:04.379Z,76.57
2022-10-23T08:13:44.809Z,73.21
2022-10-23T08:16:13.607Z,70.19
2022-10-23T08:19:09.158Z,68.74
2022-10-23T08:21:40.436Z,70.23
2022-10-23T08:24:13.667Z,68.15
2022-10-23T08:26:43.951Z,67.24
2022-10-23T08:29:15.595Z,68.83
2022-10-23T08:31:44.114Z,70.13
2022-10-23T08:34:31.287Z,70.64
2022-10-23T08:37:01.488Z,70.08
2022-10-23T08:39:30.636Z,71.10
2022-10-23T08:42:30.186Z,68.56
2022-10-23T08:45:19.091Z,68.88
2022-10-23T08:47:54.259Z,68.18
2022-10-23T08:51:02.090Z,65.81
2022-10-23T08:53:37.411Z,67.55
2022-10-23T08:56:12.417Z,70.29
2022-10-23T08:58:45.766Z,71.02
2022-10-23T09:01:34.073Z,71.68
2022-10-23T09:04:03.543Z,73.71
2022-10-23T09:06:37.877Z,72.85
2022-10-23T09:09:31.865Z,74.39
2022-10-23T09:12:06.030Z,75.25
2022-10-23T09:14:57.323Z,75.24
2022-10-23T09:17:58.661Z,76.29
2022-10-23T09:20:29.956Z,77.21
2022-10-23T09:23:29.322Z,77.42
2022-10-23T09:25:58.292Z,78.14
2022-10-23T09:28:44.334Z,78.44
2022-10-23T09:31:13.481Z,79.10
2022-10-23T09:33:54.142Z,78.62
2022-10-23T09:36:24.439Z,79.54
2022-10-23T09:38:54.773Z,79.92
2022-10-23T09:41:31.291Z,80.78
2022-10-23T09:44:10.801Z,81.39
2022-10-23T09:46:41.345Z,81.17
2022-10-23T09:49:19.265Z,81.53
2022-10-23T09:52:01.561Z,81.69
2022-10-23T09:54:33.003Z,81.28
2022-10-23T09:57:07.030Z,79.30
2022-10-23T09:59:35.756Z,79.84
2022-10-23T10:02:05.046Z,80.01
2022-10-23T10:04:58.178Z,79.27
2022-10-23T10:07:32.149Z,79.87
2022-10-23T10:10:03.184Z,79.50
2022-10-23T10:12:43.289Z,79.69
2022-10-23T10:15:21.225Z,80.47
2022-10-23T10:18:02.295Z,80.07
2022-10-23T10:20:59.845Z,80.82
2022-10-23T10:23:36.556Z,81.47
2022-10-23T10:26:23.378Z,82.10
2022-10-23T10:29:03.373Z,81.47
2022-10-23T10:31:43.111Z,81.72
2022-10-23T10:34:18.371Z,81.04
2022-10-23T10:36:51.825Z,81.08
2022-10-23T10:39:37.794Z,81.28
2022-10-23T10:42:35.191Z,80.97
2022-10-23T10:45:27.017Z,80.75
2022-10-23T10:48:21.496Z,80.35
2022-10-23T10:51:34.291Z,76.28
2022-10-23T10:54:27.410Z,73.54
2022-10-23T10:56:59.270Z,71.87
2022-10-23T10:59:31.844Z,71.97
2022-10-23T11:02:06.606Z,71.03
2022-10-23T11:04:39.050Z,71.09
2022-10-23T11:07:12.628Z,69.23
2022-10-23T11:09:44.080Z,68.68
2022-10-23T11:12:18.721Z,67.19
2022-10-23T11:14:47.514Z,65.07
2022-10-23T11:17:20.157Z,63.78
2022-10-23T11:19:54.130Z,63.34
2022-10-23T11:22:28.827Z,61.00
2022-10-23T11:25:51.466Z,59.14
2022-10-23T11:28:29.349Z,60.05
2022-10-23T11:31:13.027Z,61.13
2022-10-23T11:34:18.451Z,60.86
2022-10-23T11:36:50.822Z,61.39
2022-10-23T11:39:22.861Z,61.30
2022-10-23T11:41:56.268Z,61.39
2022-10-23T11:44:43.432Z,61.11
2022-10-23T11:47:39.549Z,60.85
2022-10-23T11:50:27.293Z,60.88
2022-10-23T11:53:14.728Z,62.03
2022-10-23T11:56:02.170Z,63.99
2022-10-23T11:58:43.633Z,66.49
2022-10-23T12:01:43.741Z,67.11
2022-10-23T12:04:22.565Z,68.28
2022-10-23T12:06:53.685Z,68.94
2022-10-23T12:09:29.923Z,69.24
2022-10-23T12:12:30.661Z,70.36
2022-10-23T12:15:29.107Z,70.52
2022-10-23T12:18:14.252Z,71.37
2022-10-23T12:20:51.066Z,70.53
2022-10-23T12:23:36.445Z,70.08
2022-10-23T12:26:33.211Z,71.56
2022-10-23T12:29:11.743Z,70.54
2022-10-23T12:31:51.491Z,70.90
2022-10-23T12:34:33.053Z,71.09
2022-10-23T12:37:38.263Z,71.02
2022-10-23T12:40:09.542Z,71.18
2022-10-23T12:42:39.381Z,71.42
2022-10-23T12:45:18.853Z,71.61
2022-10-23T12:47:52.416Z,71.50
2022-10-23T12:50:23.463Z,70.98
2022-10-23T12:52:53.357Z,69.50
2022-10-23T12:55:22.859Z,69.15
2022-10-23T12:57:51.961Z,69.38
2022-10-23T13:00:23.095Z,68.60
2022-10-23T13:03:00.575Z,68.43
2022-10-23T13:05:30.295Z,69.17
2022-10-23T13:08:00.416Z,70.05
2022-10-23T13:10:46.435Z,71.21
2022-10-23T13:13:22.940Z,71.00
2022-10-23T13:15:51.734Z,70.44
2022-10-23T13:18:21.492Z,71.67
2022-10-23T13:20:59.435Z,71.37
2022-10-23T13:23:34.012Z,71.02
2022-10-23T13:26:05.984Z,71.30
2022-10-23T13:28:35.782Z,70.27
2022-10-23T13:31:08.568Z,70.80
2022-10-23T13:33:40.627Z,70.58
2022-10-23T13:36:23.704Z,70.08
2022-10-23T13:39:04.114Z,70.35
2022-10-23T13:41:38.127Z,69.55
2022-10-23T13:44:07.059Z,70.72
2022-10-23T13:46:35.496Z,69.73
2022-10-23T13:49:05.425Z,69.20
2022-10-23T13:51:42.474Z,69.29
2022-10-23T13:54:15.677Z,70.11
2022-10-23T13:56:44.490Z,69.46
2022-10-23T13:59:13.786Z,69.10
2022-10-23T14:01:42.850Z,70.28
2022-10-23T14:04:13.897Z,70.80
2022-10-23T14:06:42.749Z,71.87
2022-10-23T14:09:13.903Z,72.38
2022-10-23T14:11:42.393Z,72.71
2022-10-23T14:14:14.515Z,74.29
2022-10-23T14:16:43.101Z,78.35
2022-10-23T14:19:13.342Z,86.97
2022-10-23T14:21:41.735Z,92.26
2022-10-23T14:24:10.391Z,92.82
2022-10-23T14:26:38.898Z,96.20
2022-10-23T14:29:10.212Z,96.10
2022-10-23T14:31:42.259Z,100.00
2022-10-23T14:34:10.622Z,100.00
2022-10-23T14:36:49.737Z,99.92
2022-10-23T14:39:19.632Z,96.18
2022-10-23T14:41:48.351Z,95.52
2022-10-23T14:44:16.738Z,94.19
2022-10-23T14:46:45.099Z,100.00
2022-10-23T14:49:13.503Z,100.00
2022-10-23T14:51:43.287Z,100.00
2022-10-23T14:54:11.783Z,100.00
2022-10-23T14:56:41.049Z,100.00
2022-10-23T14:59:11.589Z,100.00
2022-10-23T15:01:45.125Z,100.00
2022-10-23T15:04:16.368Z,100.00
2022-10-23T15:06:47.119Z,100.00
2022-10-23T15:09:16.207Z,100.00
2022-10-23T15:11:44.809Z,100.00
2022-10-23T15:14:15.898Z,100.00
2022-10-23T15:16:44.252Z,100.00
2022-10-23T15:19:18.410Z,100.00
2022-10-23T15:21:49.491Z,100.00
2022-10-23T15:24:18.538Z,100.00
2022-10-23T15:26:49.762Z,100.00
2022-10-23T15:29:18.998Z,100.00
2022-10-23T15:31:54.096Z,100.00
2022-10-23T15:34:25.469Z,100.00
2022-10-23T15:36:56.775Z,100.00
2022-10-23T15:39:27.577Z,100.00
2022-10-23T15:41:57.636Z,100.00
2022-10-23T15:44:28.519Z,100.00
2022-10-23T15:46:57.873Z,100.00
2022-10-23T15:49:26.901Z,100.00
2022-10-23T15:51:57.580Z,100.00
2022-10-23T15:54:28.181Z,100.00
2022-10-23T15:56:59.116Z,100.00
2022-10-23T15:59:28.376Z,100.00
2022-10-23T16:01:57.054Z,100.00
2022-10-23T16:04:25.661Z,100.00
2022-10-23T16:06:53.991Z,100.00
2022-10-23T16:09:23.972Z,100.00
2022-10-23T16:11:52.317Z,100.00
2022-10-23T16:14:20.801Z,100.00
2022-10-23T16:16:49.140Z,100.00
2022-10-23T16:19:18.586Z,100.00
2022-10-23T16:21:46.975Z,100.00
2022-10-23T16:24:15.346Z,100.00
2022-10-23T16:26:50.172Z,100.00
2022-10-23T16:29:18.673Z,100.00
2022-10-23T16:31:47.114Z,100.00
2022-10-23T16:34:15.542Z,100.00
2022-10-23T16:36:45.147Z,100.00
2022-10-23T16:39:36.030Z,100.00
2022-10-23T16:42:24.657Z,100.00
2022-10-23T16:45:11.349Z,100.00
2022-10-23T16:47:39.735Z,100.00
2022-10-23T16:50:08.596Z,100.00
2022-10-23T16:52:36.998Z,100.00
2022-10-23T16:55:06.926Z,100.00
2022-10-23T16:57:37.234Z,100.00
2022-10-23T17:00:07.493Z,100.00
2022-10-23T17:02:36.026Z,100.00
2022-10-23T17:05:04.970Z,100.00
2022-10-23T17:07:33.962Z,100.00
2022-10-23T17:10:02.317Z,100.00
2022-10-23T17:12:30.651Z,100.00
2022-10-23T17:15:00.544Z,100.00
2022-10-23T17:17:28.879Z,100.00
2022-10-23T17:19:57.249Z,100.00
2022-10-23T17:22:25.709Z,100.00
2022-10-23T17:24:54.351Z,100.00
2022-10-23T17:27:22.972Z,100.00
2022-10-23T17:29:51.721Z,100.00
2022-10-23T17:34:54.744Z,100.00
2022-10-23T17:37:23.300Z,100.00
2022-10-23T17:39:58.906Z,100.00
2022-10-23T17:42:29.665Z,100.00
2022-10-23T17:44:58.055Z,100.00
2022-10-23T17:47:27.905Z,100.00
2022-10-23T17:49:56.251Z,100.00
2022-10-23T17:52:27.759Z,100.00
2022-10-23T17:54:56.181Z,100.00
2022-10-23T17:57:24.517Z,100.00
2022-10-23T17:59:52.956Z,100.00
2022-10-23T18:02:21.754Z,100.00
2022-10-23T18:04:51.500Z,100.00
2022-10-23T18:07:19.957Z,100.00
2022-10-23T18:09:48.413Z,100.00
2022-10-23T18:12:16.807Z,100.00
2022-10-23T18:14:45.090Z,100.00
2022-10-23T18:17:14.380Z,100.00
2022-10-23T18:19:42.672Z,100.00
2022-10-23T18:22:12.483Z,100.00
2022-10-23T18:24:40.878Z,100.00
2022-10-23T18:27:09.238Z,100.00
2022-10-23T18:29:39.435Z,100.00
2022-10-23T18:32:07.790Z,100.00
2022-10-23T18:34:36.481Z,99.73
2022-10-23T18:37:05.024Z,99.19
2022-10-23T18:39:34.732Z,97.46
2022-10-23T18:42:03.180Z,98.85
2022-10-23T18:44:31.616Z,98.27
2022-10-23T18:47:01.092Z,98.16
2022-10-23T18:49:30.114Z,98.88
2022-10-23T18:51:59.222Z,99.03
2022-10-23T18:54:27.668Z,99.41
2022-10-23T18:56:57.435Z,99.23
2022-10-23T18:59:25.902Z,99.51
2022-10-23T19:01:54.350Z,100.00
2022-10-23T19:04:22.756Z,100.00
2022-10-23T19:06:51.926Z,100.00
2022-10-23T19:09:20.659Z,100.00
2022-10-23T19:11:49.095Z,100.00
2022-10-23T19:14:18.906Z,100.00
2022-10-23T19:17:00.435Z,100.00
2022-10-23T19:19:32.690Z,100.00
2022-10-23T19:22:03.048Z,100.00
2022-10-23T19:24:34.062Z,100.00
2022-10-23T19:27:03.394Z,100.00
2022-10-23T19:29:34.175Z,100.00
2022-10-23T19:32:03.084Z,100.00
2022-10-23T19:34:31.727Z,100.00
2022-10-23T19:37:00.274Z,100.00
2022-10-23T19:39:28.854Z,100.00
2022-10-23T19:41:57.613Z,100.00
2022-10-23T19:44:26.170Z,100.00
2022-10-23T19:46:55.993Z,100.00
2022-10-23T19:49:24.467Z,100.00
2022-10-23T19:51:53.005Z,100.00
2022-10-23T19:54:21.819Z,100.00
2022-10-23T19:56:50.646Z,100.00
2022-10-23T19:59:19.402Z,100.00
2022-10-23T20:01:48.914Z,100.00
2022-10-23T20:04:19.957Z,100.00
2022-10-23T20:06:48.497Z,100.00
2022-10-23T20:09:17.417Z,100.00
2022-10-23T20:11:45.805Z,100.00
2022-10-23T20:14:14.638Z,100.00
2022-10-23T20:16:46.095Z,100.00
2022-10-23T20:21:52.995Z,100.00
2022-10-23T20:24:22.830Z,100.00
2022-10-23T20:26:53.656Z,100.00
2022-10-23T20:29:23.844Z,100.00
2022-10-23T20:31:52.729Z,100.00
2022-10-23T20:34:21.143Z,100.00
2022-10-23T20:36:50.967Z,100.00
2022-10-23T20:39:25.323Z,100.00
2022-10-23T20:41:56.151Z,100.00
2022-10-23T20:44:25.149Z,100.00
2022-10-23T20:46:54.124Z,100.00
2022-10-23T20:49:25.680Z,100.00
2022-10-23T20:51:56.035Z,100.00
2022-10-23T20:54:28.902Z,100.00
2022-10-23T20:56:58.721Z,100.00
2022-10-23T20:59:27.501Z,100.00
2022-10-23T21:01:57.103Z,100.00
2022-10-23T21:04:27.773Z,100.00
2022-10-23T21:07:09.540Z,100.00
2022-10-23T21:09:40.945Z,100.00
2022-10-23T21:12:10.097Z,100.00
2022-10-23T21:14:38.883Z,100.00
2022-10-23T21:17:08.438Z,100.00
2022-10-23T21:19:36.781Z,100.00
2022-10-23T21:22:05.395Z,100.00
2022-10-23T21:24:33.805Z,100.00
2022-10-23T21:27:03.557Z,100.00
2022-10-23T21:29:32.115Z,100.00
2022-10-23T21:32:02.122Z,100.00
2022-10-23T21:34:31.415Z,100.00
2022-10-23T21:37:12.424Z,100.00
2022-10-23T21:39:42.412Z,100.00
2022-10-23T21:42:13.000Z,100.00
2022-10-23T21:44:42.661Z,100.00
2022-10-23T21:47:11.201Z,100.00
2022-10-23T21:49:39.591Z,100.00
2022-10-23T21:52:08.269Z,100.00
2022-10-23T21:54:36.863Z,100.00
2022-10-23T21:57:05.297Z,100.00
2022-10-23T21:59:36.482Z,100.00
2022-10-23T22:02:05.196Z,100.00
2022-10-23T22:04:34.573Z,100.00
2022-10-23T22:07:03.670Z,100.00
2022-10-23T22:09:33.320Z,100.00
2022-10-23T22:12:02.519Z,100.00
2022-10-23T22:14:30.870Z,100.00
2022-10-23T22:17:00.718Z,100.00
2022-10-23T22:19:29.357Z,100.00
2022-10-23T22:21:57.960Z,100.00
2022-10-23T22:24:26.574Z,100.00
2022-10-23T22:26:56.767Z,100.00
2022-10-23T22:29:27.212Z,100.00
2022-10-23T22:31:56.150Z,100.00
2022-10-23T22:34:48.459Z,100.00
2022-10-23T22:37:19.835Z,100.00
2022-10-23T22:39:52.469Z,100.00
2022-10-23T22:42:21.097Z,100.00
2022-10-23T22:44:49.844Z,100.00
2022-10-23T22:47:18.226Z,100.00
2022-10-23T22:49:48.000Z,100.00
2022-10-23T22:52:16.335Z,100.00
2022-10-23T22:54:44.698Z,100.00
2022-10-23T22:57:13.059Z,100.00
2022-10-23T22:59:41.457Z,100.00
2022-10-23T23:02:09.981Z,100.00
2022-10-23T23:04:39.376Z,100.00
2022-10-23T23:07:11.207Z,100.00
2022-10-23T23:09:40.610Z,100.00
2022-10-23T23:12:11.495Z,100.00
2022-10-23T23:14:40.421Z,100.00
2022-10-23T23:17:09.824Z,100.00
2022-10-23T23:19:38.609Z,100.00
2022-10-23T23:22:07.186Z,100.00
2022-10-23T23:24:37.319Z,100.00
2022-10-23T23:27:05.713Z,100.00
2022-10-23T23:29:34.097Z,100.00
2022-10-23T23:32:02.453Z,100.00
2022-10-23T23:34:31.219Z,100.00
2022-10-23T23:36:59.558Z,100.00
2022-10-23T23:39:28.361Z,100.00
2022-10-23T23:41:58.173Z,100.00
2022-10-23T23:44:26.641Z,100.00
2022-10-23T23:46:55.004Z,100.00
2022-10-23T23:49:23.425Z,98.44
2022-10-23T23:51:52.431Z,98.15
2022-10-23T23:54:20.725Z,96.57
2022-10-23T23:56:49.012Z,95.72
2022-10-23T23:59:18.723Z,94.21
